Time;durP1;ratioP1;P1;durP2;ratioP2;P2;SDS_P1;SDS_P2;PMS_P1;PMS_P2;Temp;Humidity;BMP_temperature;BMP_pressure;BME280_temperature;BME280_humidity;BME280_pressure;Samples;Min_cycle;Max_cycle;Signal;HPM_P1;HPM_P2
2021/08/01 00:01:09;;;;;;;15.17;12.10;;;14.10;99.90;;;;;;4420498;32;20202;-61
2021/08/01 00:03:36;;;;;;;16.07;11.57;;;14.10;99.90;;;;;;4420564;32;20219;-61
2021/08/01 00:06:02;;;;;;;15.20;11.27;;;14.10;99.90;;;;;;4420622;32;20139;-62
2021/08/01 00:08:29;;;;;;;16.03;12.20;;;14.10;99.90;;;;;;4420598;32;20152;-62
2021/08/01 00:10:58;;;;;;;14.80;12.07;;;14.00;99.90;;;;;;4420772;32;20143;-62
2021/08/01 00:13:25;;;;;;;16.63;12.13;;;14.00;99.90;;;;;;4420795;32;20175;-62
2021/08/01 00:15:52;;;;;;;17.57;12.53;;;13.90;99.90;;;;;;4420121;32;20175;-62
2021/08/01 00:18:20;;;;;;;17.70;12.37;;;13.90;99.90;;;;;;4421993;32;20572;-62
2021/08/01 00:20:48;;;;;;;13.90;11.50;;;13.90;99.90;;;;;;4423349;32;20207;-62
2021/08/01 00:23:15;;;;;;;16.93;11.90;;;13.80;99.90;;;;;;4423441;32;20223;-62
2021/08/01 00:25:42;;;;;;;17.90;12.67;;;13.80;99.90;;;;;;4423781;32;20489;-62
2021/08/01 00:28:08;;;;;;;16.60;12.33;;;13.80;99.90;;;;;;4423076;32;20160;-62
2021/08/01 00:30:35;;;;;;;19.93;12.40;;;13.80;99.90;;;;;;4423321;32;20143;-63
2021/08/01 00:33:02;;;;;;;15.90;12.67;;;13.80;99.90;;;;;;4423677;32;20186;-61
2021/08/01 00:35:30;;;;;;;18.27;13.33;;;13.80;99.90;;;;;;4423041;32;20164;-63
2021/08/01 00:37:57;;;;;;;24.13;12.97;;;13.80;99.90;;;;;;4423262;32;20528;-61
2021/08/01 00:40:24;;;;;;;17.87;13.47;;;13.80;99.90;;;;;;4422984;32;20146;-61
2021/08/01 00:42:51;;;;;;;18.17;12.93;;;13.90;99.90;;;;;;4423633;32;20471;-61
2021/08/01 00:45:18;;;;;;;20.47;14.37;;;14.00;99.90;;;;;;4423062;32;20262;-61
2021/08/01 00:47:46;;;;;;;21.23;13.43;;;13.90;99.90;;;;;;4423035;32;20195;-61
2021/08/01 00:50:15;;;;;;;19.13;15.20;;;13.90;99.90;;;;;;4422745;32;20150;-61
2021/08/01 00:52:46;;;;;;;23.20;15.33;;;14.00;99.90;;;;;;4422941;32;20214;-62
2021/08/01 00:55:13;;;;;;;26.63;15.77;;;14.00;99.90;;;;;;4422957;32;20155;-61
2021/08/01 00:57:40;;;;;;;23.00;16.50;;;14.00;99.90;;;;;;4422887;32;20152;-61
2021/08/01 01:00:13;;;;;;;27.63;17.27;;;14.10;99.90;;;;;;4423048;32;20151;-61
2021/08/01 01:02:41;;;;;;;33.07;16.20;;;14.10;99.90;;;;;;4422640;32;20555;-62
2021/08/01 01:05:15;;;;;;;24.67;16.83;;;14.10;99.90;;;;;;4422885;32;20181;-62
2021/08/01 01:07:50;;;;;;;25.83;16.83;;;14.20;99.90;;;;;;4422767;32;20167;-61
2021/08/01 01:10:23;;;;;;;27.13;17.03;;;14.10;99.90;;;;;;4423726;32;20165;-63
2021/08/01 01:12:54;;;;;;;28.80;16.73;;;14.10;99.90;;;;;;4422601;32;20167;-62
2021/08/01 01:15:24;;;;;;;23.90;16.37;;;14.20;99.90;;;;;;4422944;32;20246;-63
2021/08/01 01:17:54;;;;;;;22.13;16.63;;;14.20;99.90;;;;;;4422557;32;20630;-62
2021/08/01 01:20:39;;;;;;;24.37;16.27;;;14.20;99.90;;;;;;4422570;32;20147;-62
2021/08/01 01:23:16;;;;;;;29.80;18.60;;;14.20;99.90;;;;;;4422440;32;20151;-61
2021/08/01 01:25:51;;;;;;;26.50;16.70;;;14.20;99.90;;;;;;4422917;32;20254;-62
2021/08/01 01:28:25;;;;;;;30.80;17.40;;;14.20;99.90;;;;;;4422309;32;20527;-61
2021/08/01 01:31:04;;;;;;;29.03;18.90;;;14.20;99.90;;;;;;4422071;32;20563;-62
2021/08/01 01:33:35;;;;;;;26.53;15.43;;;14.20;99.90;;;;;;4423361;32;20232;-62
2021/08/01 01:36:06;;;;;;;22.37;16.80;;;14.20;99.90;;;;;;4422472;32;20151;-63
2021/08/01 01:38:35;;;;;;;26.90;18.50;;;14.20;99.90;;;;;;4422164;32;20170;-63
2021/08/01 01:41:02;;;;;;;22.07;17.03;;;14.20;99.90;;;;;;4422505;32;20148;-62
2021/08/01 01:43:29;;;;;;;28.77;17.50;;;14.20;99.90;;;;;;4422196;32;20163;-62
2021/08/01 01:45:56;;;;;;;27.87;16.67;;;14.20;99.90;;;;;;4422541;32;20166;-62
2021/08/01 01:48:23;;;;;;;21.93;16.73;;;14.30;99.90;;;;;;4422248;32;20242;-62
2021/08/01 01:50:50;;;;;;;23.47;16.37;;;14.20;99.90;;;;;;4422011;32;20188;-62
2021/08/01 01:53:17;;;;;;;27.37;16.03;;;14.20;99.90;;;;;;4413373;32;20722;-62
2021/08/01 01:55:46;;;;;;;26.70;17.00;;;14.20;99.90;;;;;;4413725;32;20567;-60
2021/08/01 01:58:15;;;;;;;26.60;17.00;;;14.20;99.90;;;;;;4406922;32;20171;-60
2021/08/01 02:00:42;;;;;;;26.17;16.47;;;14.30;99.90;;;;;;4406890;32;20148;-61
2021/08/01 02:03:19;;;;;;;27.23;17.30;;;14.30;99.90;;;;;;4399969;32;20210;-62
2021/08/01 02:05:49;;;;;;;28.50;18.00;;;14.30;99.90;;;;;;4398740;32;20159;-60
2021/08/01 02:08:16;;;;;;;24.97;16.60;;;14.40;99.90;;;;;;4399881;32;20203;-61
2021/08/01 02:10:49;;;;;;;25.00;17.43;;;14.40;99.90;;;;;;4392272;32;20179;-62
2021/08/01 02:13:20;;;;;;;24.90;16.97;;;14.50;99.90;;;;;;4409964;32;20211;-61
2021/08/01 02:15:51;;;;;;;31.33;18.47;;;14.60;99.90;;;;;;4419066;32;20163;-61
2021/08/01 02:18:24;;;;;;;22.10;16.13;;;14.60;99.90;;;;;;4423445;32;20181;-62
2021/08/01 02:20:52;;;;;;;24.47;16.37;;;14.70;99.90;;;;;;4423301;32;20178;-61
2021/08/01 02:23:23;;;;;;;31.37;17.30;;;14.70;99.90;;;;;;4421596;32;20194;-62
2021/08/01 02:25:53;;;;;;;27.27;17.73;;;14.80;99.90;;;;;;4422559;32;20197;-62
2021/08/01 02:28:23;;;;;;;25.13;18.23;;;14.80;99.90;;;;;;4421013;32;20183;-62
2021/08/01 02:30:51;;;;;;;29.20;16.67;;;14.90;99.90;;;;;;4423275;32;20207;-61
2021/08/01 02:33:18;;;;;;;26.00;16.33;;;14.90;99.90;;;;;;4421561;32;20471;-62
2021/08/01 02:35:47;;;;;;;21.70;16.17;;;14.90;99.90;;;;;;4421544;32;20148;-61
2021/08/01 02:38:14;;;;;;;27.73;18.07;;;14.90;99.90;;;;;;4421832;32;20204;-62
2021/08/01 02:40:43;;;;;;;27.13;17.23;;;14.90;99.90;;;;;;4421701;32;20147;-61
2021/08/01 02:43:13;;;;;;;29.60;17.03;;;15.00;99.90;;;;;;4421174;32;20182;-62
2021/08/01 02:45:42;;;;;;;24.07;17.00;;;15.00;99.90;;;;;;4421077;32;20203;-61
2021/08/01 02:48:12;;;;;;;24.57;16.90;;;15.00;99.90;;;;;;4421504;32;20183;-61
2021/08/01 02:50:40;;;;;;;26.03;17.60;;;15.10;99.90;;;;;;4421488;32;20182;-62
2021/08/01 02:53:11;;;;;;;29.87;16.97;;;15.10;99.90;;;;;;4421231;32;20170;-61
2021/08/01 02:55:42;;;;;;;26.63;17.87;;;15.00;99.90;;;;;;4421465;32;20159;-62
2021/08/01 02:58:11;;;;;;;27.63;18.93;;;15.10;99.90;;;;;;4421179;32;20144;-61
2021/08/01 03:00:38;;;;;;;27.53;18.30;;;15.20;99.90;;;;;;4420955;32;20159;-62
2021/08/01 03:03:06;;;;;;;24.57;18.03;;;15.20;99.90;;;;;;4422780;32;20211;-61
2021/08/01 03:05:33;;;;;;;29.20;18.43;;;15.20;99.90;;;;;;4421407;32;20171;-62
2021/08/01 03:08:00;;;;;;;33.47;20.53;;;15.20;99.90;;;;;;4421789;32;20551;-60
2021/08/01 03:10:29;;;;;;;30.53;18.97;;;15.20;99.90;;;;;;4408344;32;20178;-62
2021/08/01 03:12:56;;;;;;;33.10;20.27;;;15.20;99.90;;;;;;4421145;32;20160;-61
2021/08/01 03:15:25;;;;;;;27.80;19.53;;;15.20;99.90;;;;;;4421678;32;20144;-61
2021/08/01 03:17:51;;;;;;;27.87;19.73;;;15.20;99.90;;;;;;4422180;32;20215;-62
2021/08/01 03:20:18;;;;;;;28.67;17.83;;;15.20;99.90;;;;;;4422434;32;20210;-62
2021/08/01 03:22:45;;;;;;;29.53;20.17;;;15.20;99.90;;;;;;4420615;32;20174;-62
2021/08/01 03:25:12;;;;;;;28.20;18.80;;;15.20;99.90;;;;;;4420793;32;20601;-61
2021/08/01 03:27:39;;;;;;;25.80;18.13;;;15.20;99.90;;;;;;4420462;32;20216;-62
2021/08/01 03:30:06;;;;;;;29.97;19.47;;;15.30;99.90;;;;;;4421635;32;20567;-62
2021/08/01 03:32:35;;;;;;;25.70;17.23;;;15.30;99.90;;;;;;4420890;32;20274;-61
2021/08/01 03:35:01;;;;;;;24.90;19.33;;;15.30;99.90;;;;;;4421078;32;20559;-62
2021/08/01 03:37:28;;;;;;;30.33;19.23;;;15.30;99.90;;;;;;4421598;32;20154;-62
2021/08/01 03:39:55;;;;;;;24.30;17.73;;;15.30;99.90;;;;;;4422090;32;20143;-61
2021/08/01 03:42:23;;;;;;;22.77;17.30;;;15.30;99.90;;;;;;4421825;32;20185;-61
2021/08/01 03:44:49;;;;;;;27.40;18.03;;;15.30;99.90;;;;;;4420439;32;20175;-61
2021/08/01 03:47:16;;;;;;;22.00;17.47;;;15.30;99.90;;;;;;4421036;32;20215;-63
2021/08/01 03:49:45;;;;;;;24.17;18.33;;;15.20;99.90;;;;;;4420554;32;20170;-62
2021/08/01 03:52:12;;;;;;;32.17;20.97;;;15.30;99.90;;;;;;4419987;32;20143;-61
2021/08/01 03:54:39;;;;;;;33.23;19.50;;;15.30;99.90;;;;;;4421397;32;20202;-59
2021/08/01 03:57:06;;;;;;;27.00;19.13;;;15.30;99.90;;;;;;4420778;32;20151;-60
2021/08/01 03:59:35;;;;;;;27.00;18.20;;;15.30;99.90;;;;;;4420570;32;20169;-60
2021/08/01 04:02:02;;;;;;;25.83;18.13;;;15.30;99.90;;;;;;4420547;32;20144;-63
2021/08/01 04:04:29;;;;;;;23.13;16.73;;;15.30;99.90;;;;;;4420428;32;20243;-60
2021/08/01 04:06:57;;;;;;;32.00;19.63;;;15.30;99.90;;;;;;4420551;32;20167;-59
2021/08/01 04:09:24;;;;;;;25.10;18.90;;;15.40;99.90;;;;;;4421764;32;20182;-60
2021/08/01 04:11:52;;;;;;;24.87;16.50;;;15.40;99.90;;;;;;4420511;32;20163;-61
2021/08/01 04:14:19;;;;;;;30.10;17.07;;;15.40;99.90;;;;;;4422037;32;20221;-61
2021/08/01 04:16:46;;;;;;;23.17;16.33;;;15.40;99.90;;;;;;4420470;32;20510;-61
2021/08/01 04:19:14;;;;;;;26.83;17.63;;;15.40;99.90;;;;;;4420465;32;20170;-62
2021/08/01 04:21:41;;;;;;;26.33;17.30;;;15.40;99.90;;;;;;4421786;32;20481;-61
2021/08/01 04:24:10;;;;;;;25.43;17.17;;;15.50;99.90;;;;;;4420321;32;20143;-62
2021/08/01 04:26:37;;;;;;;26.10;16.43;;;15.50;99.90;;;;;;4420356;32;20159;-61
2021/08/01 04:29:05;;;;;;;21.80;14.67;;;15.60;99.90;;;;;;4420204;32;20171;-61
2021/08/01 04:31:32;;;;;;;27.30;16.83;;;15.70;99.90;;;;;;4420293;32;20166;-61
2021/08/01 04:33:59;;;;;;;28.83;17.37;;;15.60;99.90;;;;;;4420013;32;20230;-62
2021/08/01 04:36:27;;;;;;;24.73;14.93;;;15.70;99.90;;;;;;4420297;32;20199;-62
2021/08/01 04:38:54;;;;;;;22.07;15.37;;;15.70;99.90;;;;;;4420391;32;20196;-62
2021/08/01 04:41:22;;;;;;;24.17;15.83;;;15.80;99.90;;;;;;4420436;32;20170;-61
2021/08/01 04:43:49;;;;;;;27.83;16.00;;;15.70;99.90;;;;;;4420267;32;20211;-62
2021/08/01 04:46:16;;;;;;;27.93;15.17;;;15.80;99.90;;;;;;4420122;32;20207;-61
2021/08/01 04:48:42;;;;;;;24.47;14.50;;;15.80;99.90;;;;;;4420205;32;20171;-60
2021/08/01 04:51:09;;;;;;;23.30;15.27;;;15.80;99.90;;;;;;4420051;32;20582;-60
2021/08/01 04:53:36;;;;;;;28.63;14.53;;;15.80;99.90;;;;;;4420066;32;20200;-61
2021/08/01 04:56:07;;;;;;;20.03;14.50;;;15.80;99.90;;;;;;4420007;32;20182;-62
2021/08/01 04:58:36;;;;;;;21.20;12.77;;;15.90;99.90;;;;;;4420305;32;20182;-62
2021/08/01 05:01:09;;;;;;;24.07;13.40;;;15.90;99.90;;;;;;4419923;32;20582;-62
2021/08/01 05:03:37;;;;;;;21.97;13.10;;;16.00;99.90;;;;;;4421633;32;20211;-61
2021/08/01 05:06:04;;;;;;;27.17;15.13;;;16.00;99.90;;;;;;4422629;32;20534;-62
2021/08/01 05:08:31;;;;;;;24.57;13.90;;;16.10;99.90;;;;;;4422988;32;20167;-62
2021/08/01 05:10:58;;;;;;;21.40;14.03;;;16.20;99.90;;;;;;4422742;32;20151;-62
2021/08/01 05:13:25;;;;;;;30.60;14.67;;;16.20;99.90;;;;;;4422631;32;20163;-61
2021/08/01 05:15:53;;;;;;;24.77;12.83;;;16.30;99.90;;;;;;4422496;32;20167;-61
2021/08/01 05:18:20;;;;;;;28.10;13.53;;;16.40;99.90;;;;;;4423255;32;20236;-61
2021/08/01 05:20:47;;;;;;;23.97;14.20;;;16.40;99.90;;;;;;4423379;32;20162;-61
2021/08/01 05:23:14;;;;;;;27.50;14.17;;;16.50;99.90;;;;;;4423851;32;20594;-62
2021/08/01 05:25:42;;;;;;;28.57;14.77;;;16.50;99.90;;;;;;4422785;32;20167;-61
2021/08/01 05:28:08;;;;;;;26.87;15.63;;;16.40;99.90;;;;;;4421980;32;20503;-61
2021/08/01 05:30:35;;;;;;;23.77;14.10;;;16.40;99.90;;;;;;4423703;32;20147;-62
2021/08/01 05:33:06;;;;;;;29.73;16.30;;;16.50;99.90;;;;;;4422585;32;20166;-61
2021/08/01 05:35:33;;;;;;;28.33;15.60;;;16.50;99.90;;;;;;4411933;32;20174;-61
2021/08/01 05:38:01;;;;;;;24.70;16.17;;;16.60;99.90;;;;;;4406994;32;20250;-61
2021/08/01 05:40:28;;;;;;;24.97;16.27;;;16.70;99.90;;;;;;4422022;32;20174;-62
2021/08/01 05:42:56;;;;;;;27.17;16.67;;;16.70;99.90;;;;;;4422168;32;20205;-63
2021/08/01 05:45:22;;;;;;;32.67;17.60;;;16.70;99.90;;;;;;4422484;32;20178;-63
2021/08/01 05:47:49;;;;;;;31.17;18.47;;;16.70;99.90;;;;;;4422171;32;20167;-62
2021/08/01 05:50:17;;;;;;;26.63;17.33;;;16.60;99.90;;;;;;4422632;32;20590;-60
2021/08/01 05:52:45;;;;;;;32.80;19.67;;;16.60;99.90;;;;;;4422035;32;20168;-62
2021/08/01 05:55:12;;;;;;;37.60;21.43;;;16.50;99.90;;;;;;4423165;32;20144;-62
2021/08/01 05:57:39;;;;;;;32.20;21.03;;;16.50;99.90;;;;;;4421809;32;20174;-61
2021/08/01 06:00:07;;;;;;;41.63;23.60;;;16.60;99.90;;;;;;4423024;32;20167;-61
2021/08/01 06:02:34;;;;;;;44.27;22.03;;;16.60;99.90;;;;;;4423480;32;20504;-62
2021/08/01 06:05:01;;;;;;;38.87;24.73;;;16.70;99.90;;;;;;4421956;32;20213;-60
2021/08/01 06:07:30;;;;;;;42.80;23.37;;;16.70;99.90;;;;;;4422273;32;20147;-61
2021/08/01 06:10:00;;;;;;;41.47;24.27;;;16.80;99.90;;;;;;4422261;32;20151;-60
2021/08/01 06:12:26;;;;;;;36.03;23.90;;;17.00;99.90;;;;;;4421749;32;20210;-61
2021/08/01 06:14:55;;;;;;;47.27;25.37;;;17.10;99.90;;;;;;4421844;32;20165;-61
2021/08/01 06:17:22;;;;;;;48.70;26.47;;;17.00;99.90;;;;;;4421399;32;20210;-63
2021/08/01 06:19:48;;;;;;;41.43;24.53;;;17.00;99.90;;;;;;4421931;32;20186;-63
2021/08/01 06:22:15;;;;;;;36.60;22.93;;;17.00;99.90;;;;;;4422009;32;20170;-62
2021/08/01 06:24:44;;;;;;;43.17;26.23;;;17.00;99.90;;;;;;4421624;32;20205;-61
2021/08/01 06:27:10;;;;;;;47.73;25.87;;;16.90;99.90;;;;;;4422181;32;20522;-62
2021/08/01 06:29:37;;;;;;;44.13;26.13;;;16.90;99.90;;;;;;4421417;32;20163;-61
2021/08/01 06:32:04;;;;;;;51.23;27.60;;;16.90;99.90;;;;;;4421798;32;20151;-61
2021/08/01 06:34:31;;;;;;;51.57;26.87;;;17.00;99.90;;;;;;4421552;32;20172;-62
2021/08/01 06:36:58;;;;;;;45.83;27.87;;;17.00;99.90;;;;;;4421714;32;20170;-62
2021/08/01 06:39:25;;;;;;;45.93;27.50;;;17.10;99.90;;;;;;4421188;32;20239;-60
2021/08/01 06:41:53;;;;;;;56.23;28.00;;;17.10;99.90;;;;;;4422710;32;20203;-61
2021/08/01 06:44:21;;;;;;;52.30;27.53;;;17.00;99.90;;;;;;4421745;32;20305;-61
2021/08/01 06:46:48;;;;;;;47.67;27.67;;;17.00;99.90;;;;;;4421825;32;20159;-62
2021/08/01 06:49:15;;;;;;;48.27;27.07;;;17.00;99.90;;;;;;4421273;32;20203;-61
2021/08/01 06:51:42;;;;;;;64.13;31.93;;;17.10;99.90;;;;;;4420975;32;20144;-62
2021/08/01 06:54:09;;;;;;;72.57;33.63;;;17.10;99.90;;;;;;4421197;32;20152;-62
2021/08/01 06:56:36;;;;;;;62.40;30.37;;;17.20;99.90;;;;;;4421762;32;20206;-63
2021/08/01 06:59:04;;;;;;;55.63;31.57;;;17.50;99.90;;;;;;4422921;32;20204;-63
2021/08/01 07:01:31;;;;;;;68.80;32.70;;;17.70;99.90;;;;;;4421111;32;20182;-62
2021/08/01 07:03:59;;;;;;;55.13;31.30;;;17.90;99.90;;;;;;4420957;32;20160;-62
2021/08/01 07:06:26;;;;;;;60.13;30.80;;;18.20;99.90;;;;;;4421436;32;20203;-61
2021/08/01 07:08:52;;;;;;;51.80;31.00;;;18.30;99.90;;;;;;4422441;32;20475;-62
2021/08/01 07:11:19;;;;;;;46.93;28.70;;;18.30;99.90;;;;;;4420974;32;20166;-63
2021/08/01 07:13:48;;;;;;;50.57;27.37;;;18.30;99.90;;;;;;4421478;32;20171;-62
2021/08/01 07:16:16;;;;;;;49.67;26.53;;;18.10;99.90;;;;;;4420876;32;20144;-64
2021/08/01 07:18:43;;;;;;;42.90;25.77;;;18.10;99.90;;;;;;4420914;32;20187;-62
2021/08/01 07:21:10;;;;;;;49.30;27.57;;;18.10;99.90;;;;;;4422209;32;20170;-63
2021/08/01 07:23:36;;;;;;;52.47;30.23;;;18.10;99.90;;;;;;4420900;32;20590;-62
2021/08/01 07:26:03;;;;;;;56.77;30.30;;;18.20;99.90;;;;;;4420670;32;20512;-62
2021/08/01 07:28:30;;;;;;;49.77;28.03;;;18.30;99.90;;;;;;4420462;32;20175;-62
2021/08/01 07:30:57;;;;;;;42.47;24.70;;;18.60;99.90;;;;;;4414125;32;20170;-62
2021/08/01 07:33:25;;;;;;;35.20;23.57;;;18.90;99.90;;;;;;4406307;32;20509;-62
2021/08/01 07:35:52;;;;;;;39.57;24.20;;;19.00;99.90;;;;;;4416138;32;20233;-63
2021/08/01 07:38:18;;;;;;;37.57;23.13;;;19.00;99.90;;;;;;4420765;32;20203;-62
2021/08/01 07:40:45;;;;;;;39.13;24.10;;;19.10;99.90;;;;;;4420592;32;20148;-63
2021/08/01 07:43:12;;;;;;;30.07;21.30;;;19.00;99.90;;;;;;4422435;32;20187;-63
2021/08/01 07:45:40;;;;;;;29.70;20.83;;;19.00;99.90;;;;;;4420698;32;20207;-63
2021/08/01 07:48:07;;;;;;;33.43;22.40;;;19.10;99.90;;;;;;4420963;32;20206;-63
2021/08/01 07:50:35;;;;;;;32.13;21.43;;;19.00;99.90;;;;;;4421614;32;20170;-63
2021/08/01 07:53:02;;;;;;;30.40;19.93;;;18.90;99.90;;;;;;4422297;32;20627;-62
2021/08/01 07:55:28;;;;;;;29.77;19.73;;;18.90;99.90;;;;;;4420578;32;20186;-62
2021/08/01 07:57:56;;;;;;;36.80;21.60;;;19.10;99.90;;;;;;4406718;32;20184;-62
2021/08/01 08:00:23;;;;;;;27.53;18.93;;;19.50;99.90;;;;;;4420510;32;20147;-64
2021/08/01 08:02:50;;;;;;;37.70;20.60;;;19.90;99.90;;;;;;4420415;32;20174;-63
2021/08/01 08:05:17;;;;;;;26.77;18.97;;;20.10;99.90;;;;;;4421266;32;20143;-63
2021/08/01 08:08:00;;;;;;;25.67;15.60;;;21.10;99.90;;;;;;4400116;32;20294;-63
2021/08/01 08:13:20;;;;;;;24.37;17.37;;;22.40;99.90;;;;;;4395341;32;20259;-62
2021/08/01 08:15:46;;;;;;;25.30;16.37;;;21.80;99.90;;;;;;4390319;32;20951;-62
2021/08/01 08:18:27;;;;;;;20.53;15.33;;;21.50;99.90;;;;;;4394417;32;20334;-62
2021/08/01 08:20:54;;;;;;;21.50;16.23;;;21.50;99.90;;;;;;4399513;32;20148;-62
2021/08/01 08:23:23;;;;;;;22.97;16.50;;;21.80;99.90;;;;;;4403270;32;20226;-63
2021/08/01 08:25:50;;;;;;;25.03;15.40;;;21.80;99.90;;;;;;4400874;32;20225;-62
2021/08/01 08:28:17;;;;;;;18.70;14.53;;;21.50;99.90;;;;;;4409347;32;20615;-62
2021/08/01 08:30:43;;;;;;;17.13;13.30;;;21.30;99.90;;;;;;4410369;32;20208;-62
2021/08/01 08:33:11;;;;;;;17.57;11.10;;;21.40;99.90;;;;;;4405241;32;20576;-64
2021/08/01 08:35:38;;;;;;;14.87;10.63;;;23.70;99.90;;;;;;4405213;32;20151;-64
2021/08/01 08:38:05;;;;;;;12.63;8.95;;;26.50;99.90;;;;;;4405370;32;20233;-63
2021/08/01 08:40:37;;;;;;;12.67;9.80;;;26.90;99.40;;;;;;4408749;32;20163;-64
2021/08/01 08:43:04;;;;;;;12.90;10.50;;;26.00;99.10;;;;;;4409080;32;20140;-63
2021/08/01 08:45:32;;;;;;;11.23;8.70;;;24.70;99.90;;;;;;4408352;32;20203;-64
2021/08/01 08:48:00;;;;;;;13.60;10.77;;;23.60;99.90;;;;;;4408912;32;20235;-63
2021/08/01 08:50:27;;;;;;;13.40;10.17;;;23.40;99.90;;;;;;4407958;32;20203;-64
2021/08/01 08:52:58;;;;;;;16.97;11.40;;;23.30;99.90;;;;;;4408194;32;20155;-64
2021/08/01 08:55:28;;;;;;;16.03;12.03;;;23.20;99.90;;;;;;4407741;32;20163;-62
2021/08/01 08:58:02;;;;;;;15.37;11.77;;;22.20;99.90;;;;;;4408752;32;20144;-63
2021/08/01 09:00:29;;;;;;;14.80;11.67;;;21.40;99.90;;;;;;4407797;32;20490;-63
2021/08/01 09:02:56;;;;;;;12.60;10.17;;;20.80;99.90;;;;;;4407789;32;20148;-62
2021/08/01 09:05:24;;;;;;;12.90;10.60;;;20.30;99.90;;;;;;4407737;32;20166;-63
2021/08/01 09:07:50;;;;;;;13.07;10.27;;;20.00;99.90;;;;;;4407657;32;20198;-62
2021/08/01 09:10:17;;;;;;;13.90;10.47;;;19.80;99.90;;;;;;4408898;32;20148;-61
2021/08/01 09:12:45;;;;;;;11.37;9.83;;;19.50;99.90;;;;;;4407683;32;20220;-61
2021/08/01 09:15:16;;;;;;;11.63;8.50;;;19.10;99.90;;;;;;4407614;32;20186;-61
2021/08/01 09:17:44;;;;;;;8.70;7.40;;;18.80;99.90;;;;;;4407714;32;20468;-61
2021/08/01 09:20:20;;;;;;;8.63;7.07;;;18.60;99.90;;;;;;4408274;32;20148;-61
2021/08/01 09:23:10;;;;;;;8.07;6.77;;;18.50;99.90;;;;;;4407657;32;20148;-61
2021/08/01 09:25:39;;;;;;;6.67;5.63;;;18.20;99.90;;;;;;4408403;32;20470;-60
2021/08/01 09:28:07;;;;;;;6.80;5.77;;;18.10;99.90;;;;;;4407115;32;20227;-60
2021/08/01 09:30:47;;;;;;;6.27;5.60;;;17.90;99.90;;;;;;4407454;32;20253;-61
2021/08/01 09:33:17;;;;;;;6.57;5.67;;;17.80;99.90;;;;;;4395255;32;20228;-61
2021/08/01 09:35:44;;;;;;;7.97;6.10;;;17.80;99.90;;;;;;4407551;32;20210;-61
2021/08/01 09:38:10;;;;;;;6.33;5.40;;;17.90;99.90;;;;;;4407742;32;20196;-60
2021/08/01 09:40:39;;;;;;;6.87;5.53;;;18.00;99.90;;;;;;4408094;32;20151;-61
2021/08/01 09:43:09;;;;;;;7.10;6.17;;;18.10;99.90;;;;;;4408062;32;20202;-61
2021/08/01 09:45:36;;;;;;;5.80;5.27;;;18.40;99.90;;;;;;4408060;32;20235;-61
2021/08/01 09:48:18;;;;;;;6.20;5.40;;;18.60;99.90;;;;;;4407338;32;20267;-61
2021/08/01 09:51:02;;;;;;;7.43;6.00;;;19.00;99.90;;;;;;4406259;32;20194;-61
2021/08/01 09:53:30;;;;;;;7.17;5.80;;;19.10;99.90;;;;;;4407080;32;20217;-61
2021/08/01 09:56:14;;;;;;;5.80;5.27;;;19.10;99.90;;;;;;4407017;32;20605;-61
2021/08/01 09:58:42;;;;;;;7.30;5.33;;;19.20;99.90;;;;;;4409206;32;20143;-61
2021/08/01 10:01:09;;;;;;;5.87;5.00;;;19.50;99.90;;;;;;4422885;32;20168;-61
2021/08/01 10:03:39;;;;;;;5.93;5.17;;;19.70;99.90;;;;;;4422560;32;20472;-61
2021/08/01 10:06:13;;;;;;;6.17;5.57;;;19.60;99.90;;;;;;4422069;32;20147;-61
2021/08/01 10:08:42;;;;;;;6.10;5.50;;;19.30;99.90;;;;;;4422101;32;20437;-63
2021/08/01 10:11:11;;;;;;;6.77;5.70;;;18.90;99.90;;;;;;4422405;32;20166;-62
2021/08/01 10:13:38;;;;;;;7.37;5.83;;;18.60;99.90;;;;;;4422566;32;20521;-61
2021/08/01 10:16:07;;;;;;;6.77;6.17;;;18.40;99.90;;;;;;4408265;32;20155;-62
2021/08/01 10:18:34;;;;;;;6.97;5.77;;;18.90;99.90;;;;;;4423505;32;20151;-62
2021/08/01 10:21:03;;;;;;;6.07;5.57;;;19.90;99.90;;;;;;4422784;32;20155;-62
2021/08/01 10:23:35;;;;;;;6.20;5.40;;;20.40;99.90;;;;;;4421851;32;20140;-62
2021/08/01 10:26:05;;;;;;;4.57;4.17;;;21.20;99.90;;;;;;4421848;32;20179;-62
2021/08/01 10:28:33;;;;;;;5.17;3.33;;;21.50;99.90;;;;;;4422174;32;20203;-62
2021/08/01 10:31:03;;;;;;;3.43;3.13;;;21.60;99.90;;;;;;4422467;32;20577;-61
2021/08/01 10:33:37;;;;;;;3.03;2.83;;;21.90;99.90;;;;;;4421472;32;20579;-62
2021/08/01 10:36:07;;;;;;;3.00;2.80;;;22.00;99.90;;;;;;4421648;32;20180;-62
2021/08/01 10:38:37;;;;;;;3.30;2.77;;;21.80;99.90;;;;;;4422968;32;20170;-63
2021/08/01 10:41:08;;;;;;;3.00;2.70;;;21.70;99.90;;;;;;4421420;32;20162;-63
2021/08/01 10:43:37;;;;;;;3.83;2.70;;;21.30;99.90;;;;;;4421367;32;20147;-62
2021/08/01 10:46:04;;;;;;;3.10;2.80;;;20.90;99.90;;;;;;4421707;32;20148;-63
2021/08/01 10:48:32;;;;;;;3.40;3.10;;;20.80;99.90;;;;;;4421404;32;20174;-63
2021/08/01 10:51:00;;;;;;;2.97;2.77;;;20.70;99.90;;;;;;4421282;32;20167;-62
2021/08/01 10:53:29;;;;;;;3.07;2.77;;;21.10;99.90;;;;;;4422246;32;20482;-62
2021/08/01 10:56:30;;;;;;;2.90;2.70;;;22.00;99.90;;;;;;4421225;32;20585;-64
2021/08/01 10:58:59;;;;;;;2.47;2.27;;;22.80;99.90;;;;;;4418397;32;20175;-62
2021/08/01 11:01:26;;;;;;;3.93;3.27;;;23.60;99.90;;;;;;4421240;32;20163;-63
2021/08/01 11:04:28;;;;;;;4.37;2.63;;;24.30;99.90;;;;;;4421228;32;20213;-63
2021/08/01 11:06:55;;;;;;;3.70;3.03;;;24.20;99.90;;;;;;4414331;32;20151;-63
2021/08/01 11:09:23;;;;;;;3.93;2.90;;;24.00;99.90;;;;;;4406055;32;20455;-64
2021/08/01 11:12:27;;;;;;;3.17;2.93;;;23.50;99.90;;;;;;4405604;32;20587;-63
2021/08/01 11:14:54;;;;;;;6.90;3.70;;;23.10;99.90;;;;;;4405790;32;20190;-64
2021/08/01 11:17:59;;;;;;;3.43;3.13;;;23.10;99.90;;;;;;4407553;32;20144;-63
2021/08/01 11:20:52;;;;;;;3.73;2.70;;;23.10;99.90;;;;;;4405810;32;20614;-64
2021/08/01 11:23:19;;;;;;;4.80;3.30;;;23.60;99.90;;;;;;4407494;32;20148;-64
2021/08/01 11:28:32;;;;;;;5.33;3.20;;;23.70;99.90;;;;;;4366306;32;1712765;-63
2021/08/01 11:31:18;;;;;;;2.83;2.50;;;23.10;99.90;;;;;;4420846;32;20485;-63
2021/08/01 11:33:47;;;;;;;3.50;3.20;;;22.40;99.90;;;;;;4420902;32;20170;-64
2021/08/01 11:36:28;;;;;;;3.83;3.17;;;21.90;99.90;;;;;;4420609;32;20171;-63
2021/08/01 11:39:14;;;;;;;4.63;3.37;;;21.00;99.90;;;;;;4420692;32;20174;-62
2021/08/01 11:41:44;;;;;;;5.07;3.50;;;20.20;99.90;;;;;;4421909;32;20155;-61
2021/08/01 11:44:18;;;;;;;6.43;4.63;;;19.60;99.90;;;;;;4422287;32;20155;-61
2021/08/01 11:46:59;;;;;;;7.13;4.30;;;19.20;99.90;;;;;;4420669;32;20183;-62
2021/08/01 11:49:28;;;;;;;6.13;4.20;;;18.90;99.90;;;;;;4420642;32;20210;-62
2021/08/01 11:51:58;;;;;;;6.00;5.03;;;18.60;99.90;;;;;;4420974;32;20213;-63
2021/08/01 11:54:27;;;;;;;6.30;4.23;;;18.30;99.90;;;;;;4421575;32;20148;-63
2021/08/01 11:56:56;;;;;;;7.03;4.60;;;18.30;99.90;;;;;;4421221;32;20587;-62
2021/08/01 11:59:25;;;;;;;4.67;4.27;;;18.40;99.90;;;;;;4420550;32;20212;-62
2021/08/01 12:01:54;;;;;;;6.23;4.57;;;18.40;99.90;;;;;;4420528;32;20155;-62
2021/08/01 12:04:21;;;;;;;5.03;4.63;;;18.50;99.90;;;;;;4420597;32;20228;-63
2021/08/01 12:06:48;;;;;;;4.77;4.27;;;18.50;99.90;;;;;;4421242;32;20575;-61
2021/08/01 12:09:18;;;;;;;5.43;4.43;;;18.80;99.90;;;;;;4421527;32;20174;-62
2021/08/01 12:11:46;;;;;;;4.97;3.97;;;19.40;99.90;;;;;;4421101;32;20170;-61
2021/08/01 12:14:14;;;;;;;6.83;4.77;;;20.00;99.90;;;;;;4423404;32;20190;-62
2021/08/01 12:17:03;;;;;;;4.57;4.17;;;20.60;99.90;;;;;;4423683;32;20156;-62
2021/08/01 12:19:32;;;;;;;4.33;3.60;;;21.00;99.90;;;;;;4424367;32;20175;-62
2021/08/01 12:22:00;;;;;;;4.37;3.77;;;21.10;99.90;;;;;;4424959;32;20175;-62
2021/08/01 12:24:30;;;;;;;5.73;4.13;;;21.50;99.90;;;;;;4423495;32;20156;-62
2021/08/01 12:27:02;;;;;;;4.50;4.10;;;22.10;99.90;;;;;;4423181;32;20191;-63
2021/08/01 12:29:34;;;;;;;5.33;3.97;;;22.40;99.90;;;;;;4423748;32;20495;-63
2021/08/01 12:32:17;;;;;;;4.90;4.40;;;22.80;99.90;;;;;;4422996;32;20195;-61
2021/08/01 12:34:44;;;;;;;4.70;4.20;;;22.90;99.90;;;;;;4423959;32;20218;-62
2021/08/01 12:37:12;;;;;;;5.17;4.20;;;22.90;99.90;;;;;;4424446;32;20204;-62
2021/08/01 12:39:45;;;;;;;5.27;4.27;;;22.80;99.90;;;;;;4423750;32;20248;-64
2021/08/01 12:42:12;;;;;;;4.77;4.30;;;22.40;99.90;;;;;;4423805;32;20203;-63
2021/08/01 12:44:50;;;;;;;4.40;4.00;;;22.10;99.90;;;;;;4425006;32;20185;-62
2021/08/01 12:47:19;;;;;;;7.47;4.30;;;21.60;99.90;;;;;;4424815;32;20178;-64
2021/08/01 12:49:46;;;;;;;3.53;3.23;;;20.90;99.90;;;;;;4422935;32;20185;-61